Time;durP1;ratioP1;P1;durP2;ratioP2;P2;SDS_P1;SDS_P2;PMS_P1;PMS_P2;Temp;Humidity;BMP_temperature;BMP_pressure;BME280_temperature;BME280_humidity;BME280_pressure;Samples;Min_cycle;Max_cycle;Signal;HPM_P1;HPM_P2
2023/04/02 00:02:26;;;;;;;1999.90;999.90;;;;;;;;;;6184989;23;20167;-73
2023/04/02 00:05:29;;;;;;;1999.90;999.90;;;;;;;;;;6184594;23;20247;-72
2023/04/02 00:08:18;;;;;;;1999.90;999.90;;;;;;;;;;6185346;23;20251;-70
2023/04/02 00:11:03;;;;;;;1999.90;999.90;;;;;;;;;;6183624;23;20169;-74
2023/04/02 00:13:48;;;;;;;1999.90;999.90;;;;;;;;;;6182431;23;20438;-67
2023/04/02 00:16:35;;;;;;;1999.90;999.90;;;;;;;;;;6184904;23;20250;-71
2023/04/02 00:19:23;;;;;;;1999.90;999.90;;;;;;;;;;6184557;23;20185;-73
2023/04/02 00:22:12;;;;;;;1999.90;999.90;;;;;;;;;;6184611;23;20168;-71
2023/04/02 00:25:00;;;;;;;1999.90;999.90;;;;;;;;;;6184800;23;20181;-72
2023/04/02 00:27:45;;;;;;;1999.90;999.90;;;;;;;;;;6184343;23;20521;-73
2023/04/02 00:30:30;;;;;;;1999.90;999.90;;;;;;;;;;6184911;23;20167;-72
2023/04/02 00:33:18;;;;;;;1999.90;999.90;;;;;;;;;;6184377;23;20229;-72
2023/04/02 00:36:06;;;;;;;1999.90;999.90;;;;;;;;;;6184490;23;20173;-71
2023/04/02 00:38:51;;;;;;;1999.90;999.90;;;;;;;;;;6184339;23;20259;-72
2023/04/02 00:41:37;;;;;;;1999.90;999.90;;;;;;;;;;6184797;23;20241;-72
2023/04/02 00:44:22;;;;;;;1999.90;999.90;;;;;;;;;;6184133;23;20254;-72
2023/04/02 00:47:11;;;;;;;1999.90;999.90;;;;;;;;;;6183653;23;20434;-71
2023/04/02 00:49:59;;;;;;;1999.90;999.90;;;;;;;;;;6184795;23;20169;-72
2023/04/02 00:52:46;;;;;;;1999.90;999.90;;;;;;;;;;6183471;23;20692;-70
2023/04/02 00:55:34;;;;;;;1999.90;999.90;;;;;;;;;;6184274;23;20169;-72
2023/04/02 00:58:22;;;;;;;1999.90;999.90;;;;;;;;;;6184183;23;20520;-72
2023/04/02 01:01:15;;;;;;;1999.90;999.90;;;;;;;;;;6182874;23;20477;-72
2023/04/02 01:04:00;;;;;;;1999.90;999.90;;;;;;;;;;6184025;23;20681;-72
2023/04/02 01:06:52;;;;;;;1999.90;999.90;;;;;;;;;;6184727;23;20245;-72
2023/04/02 01:09:47;;;;;;;1999.90;999.90;;;;;;;;;;6184568;23;20187;-73
2023/04/02 01:12:41;;;;;;;1999.90;999.90;;;;;;;;;;6184038;23;20517;-73
2023/04/02 01:15:30;;;;;;;1999.90;999.90;;;;;;;;;;6184497;23;20168;-73
2023/04/02 01:18:19;;;;;;;1999.90;999.90;;;;;;;;;;6183402;23;20175;-73
2023/04/02 01:21:12;;;;;;;1999.90;999.90;;;;;;;;;;6184354;23;20242;-72
2023/04/02 01:24:04;;;;;;;1999.90;999.90;;;;;;;;;;6183814;23;20675;-72
2023/04/02 01:26:54;;;;;;;1999.90;999.90;;;;;;;;;;6184022;23;20505;-72
2023/04/02 01:29:44;;;;;;;1999.90;999.90;;;;;;;;;;6184432;23;20180;-72
2023/04/02 01:32:30;;;;;;;1999.90;999.90;;;;;;;;;;6183646;23;20620;-72
2023/04/02 01:35:15;;;;;;;1999.90;999.90;;;;;;;;;;6182568;23;20576;-72
2023/04/02 01:38:05;;;;;;;1999.90;999.90;;;;;;;;;;6183832;23;20185;-73
2023/04/02 01:40:52;;;;;;;1999.90;999.90;;;;;;;;;;6183590;23;20212;-73
2023/04/02 01:43:41;;;;;;;1999.90;999.90;;;;;;;;;;6183465;23;20208;-73
2023/04/02 01:46:29;;;;;;;1999.90;999.90;;;;;;;;;;6183937;23;20375;-71
2023/04/02 01:49:15;;;;;;;1999.90;999.90;;;;;;;;;;6184237;23;20187;-72
2023/04/02 01:52:00;;;;;;;1999.90;999.90;;;;;;;;;;6183433;23;20238;-72
2023/04/02 01:54:46;;;;;;;1999.90;999.90;;;;;;;;;;6182953;23;20206;-73
2023/04/02 01:57:31;;;;;;;1999.90;999.90;;;;;;;;;;6182985;23;20167;-72
2023/04/02 02:00:16;;;;;;;1999.90;999.90;;;;;;;;;;6183432;23;20249;-73
2023/04/02 02:03:05;;;;;;;1999.90;999.90;;;;;;;;;;6182852;23;20210;-73
2023/04/02 02:05:50;;;;;;;1999.90;999.90;;;;;;;;;;6182925;23;20605;-73
2023/04/02 02:08:37;;;;;;;1999.90;999.90;;;;;;;;;;6183377;23;20655;-73
2023/04/02 02:11:24;;;;;;;1999.90;999.90;;;;;;;;;;6182425;23;20517;-73
2023/04/02 02:14:14;;;;;;;1999.90;999.90;;;;;;;;;;6182866;23;20569;-73
2023/04/02 02:17:01;;;;;;;1999.90;999.90;;;;;;;;;;6182711;23;20214;-72
2023/04/02 02:19:47;;;;;;;1999.90;999.90;;;;;;;;;;6182490;23;20436;-72
2023/04/02 02:22:34;;;;;;;1999.90;999.90;;;;;;;;;;6182766;23;20172;-73
2023/04/02 02:25:21;;;;;;;1999.90;999.90;;;;;;;;;;6183006;23;20168;-73
2023/04/02 02:28:07;;;;;;;1999.90;999.90;;;;;;;;;;6182741;23;20633;-73
2023/04/02 02:30:53;;;;;;;1999.90;999.90;;;;;;;;;;6182609;23;20175;-73
2023/04/02 02:33:40;;;;;;;1999.90;999.90;;;;;;;;;;6181751;23;20471;-73
2023/04/02 02:36:28;;;;;;;1999.90;999.90;;;;;;;;;;6182295;23;20171;-73
2023/04/02 02:39:15;;;;;;;1999.90;999.90;;;;;;;;;;6183010;23;20168;-72
2023/04/02 02:42:02;;;;;;;1999.90;999.90;;;;;;;;;;6181781;23;20298;-72
2023/04/02 02:44:48;;;;;;;1999.90;999.90;;;;;;;;;;6182755;23;20304;-73
2023/04/02 02:47:34;;;;;;;1999.90;999.90;;;;;;;;;;6182072;23;20173;-73
2023/04/02 02:50:20;;;;;;;1999.90;999.90;;;;;;;;;;6182788;23;20167;-73
2023/04/02 02:53:14;;;;;;;1999.90;999.90;;;;;;;;;;6183095;23;20206;-72
2023/04/02 02:56:00;;;;;;;1999.90;999.90;;;;;;;;;;6182740;23;20163;-73
2023/04/02 02:58:45;;;;;;;1999.90;999.90;;;;;;;;;;6182739;23;20294;-73
2023/04/02 03:01:30;;;;;;;1999.90;999.90;;;;;;;;;;6182262;23;20619;-73
2023/04/02 03:04:21;;;;;;;1999.90;999.90;;;;;;;;;;6183006;23;20206;-73
2023/04/02 03:07:08;;;;;;;1999.90;999.90;;;;;;;;;;6182646;23;20383;-73
2023/04/02 03:09:58;;;;;;;1999.90;999.90;;;;;;;;;;6182594;23;20210;-73
2023/04/02 03:12:48;;;;;;;1999.90;999.90;;;;;;;;;;6182233;23;20792;-73
2023/04/02 03:15:36;;;;;;;1999.90;999.90;;;;;;;;;;6182362;23;20190;-72
2023/04/02 03:18:28;;;;;;;1999.90;999.90;;;;;;;;;;6184257;23;20639;-74
2023/04/02 03:21:22;;;;;;;1999.90;999.90;;;;;;;;;;6183310;23;20417;-74
2023/04/02 03:24:12;;;;;;;1999.90;999.90;;;;;;;;;;6184234;23;20215;-74
2023/04/02 03:27:01;;;;;;;1999.90;999.90;;;;;;;;;;6184394;23;20170;-74
2023/04/02 03:29:50;;;;;;;1999.90;999.90;;;;;;;;;;6185009;23;20170;-73
2023/04/02 03:32:37;;;;;;;1999.90;999.90;;;;;;;;;;6184627;23;20627;-74
2023/04/02 03:35:26;;;;;;;1999.90;999.90;;;;;;;;;;6184114;23;20195;-73
2023/04/02 03:38:13;;;;;;;1999.90;999.90;;;;;;;;;;6184615;23;20219;-75
2023/04/02 03:41:01;;;;;;;1999.90;999.90;;;;;;;;;;6183889;23;20185;-73
2023/04/02 03:43:49;;;;;;;1999.90;999.90;;;;;;;;;;6184565;23;20295;-74
2023/04/02 03:46:36;;;;;;;1999.90;999.90;;;;;;;;;;6184138;23;20170;-74
2023/04/02 03:49:26;;;;;;;1999.90;999.90;;;;;;;;;;6184720;23;20170;-74
2023/04/02 03:52:12;;;;;;;1999.90;999.90;;;;;;;;;;6183964;23;20170;-74
2023/04/02 03:54:58;;;;;;;1999.90;999.90;;;;;;;;;;6184025;23;20190;-74
2023/04/02 03:57:46;;;;;;;1999.90;999.90;;;;;;;;;;6184267;23;20624;-74
2023/04/02 04:00:36;;;;;;;1999.90;999.90;;;;;;;;;;6183888;23;20182;-73
2023/04/02 04:03:25;;;;;;;1999.90;999.90;;;;;;;;;;6184946;23;20202;-69
2023/04/02 04:06:11;;;;;;;1999.90;999.90;;;;;;;;;;6185181;23;20222;-72
2023/04/02 04:08:59;;;;;;;1999.90;999.90;;;;;;;;;;6183997;23;20493;-72
2023/04/02 04:11:45;;;;;;;1999.90;999.90;;;;;;;;;;6185050;23;20206;-72
2023/04/02 04:14:32;;;;;;;1999.90;999.90;;;;;;;;;;6184501;23;20209;-71
2023/04/02 04:17:23;;;;;;;1999.90;999.90;;;;;;;;;;6184781;23;20175;-74
2023/04/02 04:20:14;;;;;;;1999.90;999.90;;;;;;;;;;6184840;23;20182;-72
2023/04/02 04:23:08;;;;;;;1999.90;999.90;;;;;;;;;;6184677;23;20203;-74
2023/04/02 04:25:57;;;;;;;1999.90;999.90;;;;;;;;;;6184865;23;20167;-73
2023/04/02 04:28:44;;;;;;;1999.90;999.90;;;;;;;;;;6184806;23;20247;-71
2023/04/02 04:31:32;;;;;;;1999.90;999.90;;;;;;;;;;6184022;23;20167;-72
2023/04/02 04:34:22;;;;;;;1999.90;999.90;;;;;;;;;;6183557;23;20280;-72
2023/04/02 04:37:20;;;;;;;1999.90;999.90;;;;;;;;;;6184336;23;20170;-73
2023/04/02 04:40:11;;;;;;;1999.90;999.90;;;;;;;;;;6184569;23;20470;-72
2023/04/02 04:42:59;;;;;;;1999.90;999.90;;;;;;;;;;6184095;23;20344;-71
2023/04/02 04:45:46;;;;;;;1999.90;999.90;;;;;;;;;;6184577;23;20166;-71
2023/04/02 04:48:34;;;;;;;1999.90;999.90;;;;;;;;;;6184799;23;20323;-71
2023/04/02 04:51:22;;;;;;;1999.90;999.90;;;;;;;;;;6184386;23;20541;-71
2023/04/02 04:54:10;;;;;;;1999.90;999.90;;;;;;;;;;6182555;23;20404;-73
2023/04/02 04:56:57;;;;;;;1999.90;999.90;;;;;;;;;;6184509;23;20171;-72
2023/04/02 04:59:44;;;;;;;1999.90;999.90;;;;;;;;;;6184490;23;20168;-71
2023/04/02 05:02:33;;;;;;;1999.90;999.90;;;;;;;;;;6184328;23;20170;-73
2023/04/02 05:05:19;;;;;;;1999.90;999.90;;;;;;;;;;6184542;23;20203;-74
2023/04/02 05:08:10;;;;;;;1999.90;999.90;;;;;;;;;;6184387;23;20170;-75
2023/04/02 05:10:56;;;;;;;1999.90;999.90;;;;;;;;;;6183199;23;20824;-73
2023/04/02 05:13:44;;;;;;;1999.90;999.90;;;;;;;;;;6183732;23;20282;-75
2023/04/02 05:16:31;;;;;;;1999.90;999.90;;;;;;;;;;6183705;23;20598;-74
2023/04/02 05:19:19;;;;;;;1999.90;999.90;;;;;;;;;;6183613;23;20178;-75
2023/04/02 05:22:12;;;;;;;1999.90;999.90;;;;;;;;;;6182690;23;20245;-74
2023/04/02 05:25:03;;;;;;;1999.90;999.90;;;;;;;;;;6182823;23;20171;-73
2023/04/02 05:27:51;;;;;;;1999.90;999.90;;;;;;;;;;6183728;23;20673;-74
2023/04/02 05:30:51;;;;;;;1999.90;999.90;;;;;;;;;;6183476;23;20529;-73
2023/04/02 05:33:37;;;;;;;1999.90;999.90;;;;;;;;;;6183327;23;20210;-74
2023/04/02 05:36:23;;;;;;;1999.90;999.90;;;;;;;;;;6183631;23;20262;-74
2023/04/02 05:39:09;;;;;;;1999.90;999.90;;;;;;;;;;6182296;23;20388;-74
2023/04/02 05:42:00;;;;;;;1999.90;999.90;;;;;;;;;;6183579;23;20190;-74
2023/04/02 05:44:49;;;;;;;1999.90;999.90;;;;;;;;;;6183840;23;20210;-74
2023/04/02 05:47:39;;;;;;;1999.90;999.90;;;;;;;;;;6183955;23;20245;-74
2023/04/02 05:50:29;;;;;;;1999.90;999.90;;;;;;;;;;6184010;23;20170;-74
2023/04/02 05:53:17;;;;;;;1999.90;999.90;;;;;;;;;;6183784;23;20202;-74
2023/04/02 05:56:05;;;;;;;1999.90;999.90;;;;;;;;;;6183931;23;20702;-74
2023/04/02 05:58:54;;;;;;;1999.90;999.90;;;;;;;;;;6183265;23;20229;-74
2023/04/02 06:01:40;;;;;;;1999.90;999.90;;;;;;;;;;6183239;23;20170;-74
2023/04/02 06:04:26;;;;;;;1999.90;999.90;;;;;;;;;;6182489;23;20205;-74
2023/04/02 06:07:15;;;;;;;1999.90;999.90;;;;;;;;;;6182940;23;20166;-73
2023/04/02 06:10:05;;;;;;;1999.90;999.90;;;;;;;;;;6181934;23;20384;-74
2023/04/02 06:12:53;;;;;;;1999.90;999.90;;;;;;;;;;6181902;23;20202;-74
2023/04/02 06:15:40;;;;;;;1999.90;999.90;;;;;;;;;;6183144;23;20535;-72
2023/04/02 06:18:25;;;;;;;1999.90;999.90;;;;;;;;;;6183793;23;20166;-74
2023/04/02 06:21:13;;;;;;;1999.90;999.90;;;;;;;;;;6181149;23;20233;-72
2023/04/02 06:23:59;;;;;;;1999.90;999.90;;;;;;;;;;6180995;23;20380;-74
2023/04/02 06:26:47;;;;;;;1999.90;999.90;;;;;;;;;;6183746;23;20166;-72
2023/04/02 06:29:38;;;;;;;1999.90;999.90;;;;;;;;;;6183473;23;20271;-74
2023/04/02 06:32:25;;;;;;;1999.90;999.90;;;;;;;;;;6183545;23;20666;-73
2023/04/02 06:35:12;;;;;;;1999.90;999.90;;;;;;;;;;6183466;23;20241;-74
2023/04/02 06:37:58;;;;;;;1999.90;999.90;;;;;;;;;;6183558;23;20173;-74
2023/04/02 06:40:46;;;;;;;1999.90;999.90;;;;;;;;;;6183410;23;20245;-74
2023/04/02 06:43:34;;;;;;;1999.90;999.90;;;;;;;;;;6183213;23;20213;-74
2023/04/02 06:46:22;;;;;;;1999.90;999.90;;;;;;;;;;6183482;23;20298;-73
2023/04/02 06:49:13;;;;;;;1999.90;999.90;;;;;;;;;;6183084;23;20170;-71
2023/04/02 06:52:00;;;;;;;1999.90;999.90;;;;;;;;;;6183179;23;20225;-74
2023/04/02 06:54:46;;;;;;;1999.90;999.90;;;;;;;;;;6183376;23;20205;-73
2023/04/02 06:57:34;;;;;;;1999.90;999.90;;;;;;;;;;6180317;23;20451;-73
2023/04/02 07:00:23;;;;;;;1999.90;999.90;;;;;;;;;;6182559;23;20306;-73
2023/04/02 07:03:13;;;;;;;1999.90;999.90;;;;;;;;;;6181143;23;20222;-72
2023/04/02 07:06:01;;;;;;;1999.90;999.90;;;;;;;;;;6180649;23;20202;-72
2023/04/02 07:08:47;;;;;;;1999.90;999.90;;;;;;;;;;6181123;23;20242;-72
2023/04/02 07:11:32;;;;;;;1999.90;999.90;;;;;;;;;;6179354;23;20361;-73
2023/04/02 07:14:17;;;;;;;1999.90;999.90;;;;;;;;;;6179859;23;20282;-73
2023/04/02 07:17:02;;;;;;;1999.90;999.90;;;;;;;;;;6180679;23;20611;-71
2023/04/02 07:19:48;;;;;;;1999.90;999.90;;;;;;;;;;6180758;23;20218;-72
2023/04/02 07:22:35;;;;;;;1999.90;999.90;;;;;;;;;;6180401;23;20615;-73
2023/04/02 07:25:20;;;;;;;1999.90;999.90;;;;;;;;;;6181279;23;20166;-72
2023/04/02 07:28:05;;;;;;;1999.90;999.90;;;;;;;;;;6181367;23;20222;-72
2023/04/02 07:30:50;;;;;;;1999.90;999.90;;;;;;;;;;6180331;23;20214;-73
2023/04/02 07:33:35;;;;;;;1999.90;999.90;;;;;;;;;;6179923;23;20677;-73
2023/04/02 07:36:22;;;;;;;1999.90;999.90;;;;;;;;;;6180816;23;20559;-73
2023/04/02 07:39:08;;;;;;;1999.90;999.90;;;;;;;;;;6182178;23;20171;-72
2023/04/02 07:41:55;;;;;;;1999.90;999.90;;;;;;;;;;6181976;23;20174;-72
2023/04/02 07:44:40;;;;;;;1999.90;999.90;;;;;;;;;;6182170;23;20210;-72
2023/04/02 07:47:25;;;;;;;1999.90;999.90;;;;;;;;;;6181742;23;20505;-72
2023/04/02 07:50:10;;;;;;;1999.90;999.90;;;;;;;;;;6182606;23;20174;-73
2023/04/02 07:52:55;;;;;;;1999.90;999.90;;;;;;;;;;6182065;23;20210;-73
2023/04/02 07:55:42;;;;;;;1999.90;999.90;;;;;;;;;;6180640;23;20399;-74
2023/04/02 07:58:27;;;;;;;1999.90;999.90;;;;;;;;;;6182044;23;20275;-73
2023/04/02 08:01:17;;;;;;;1999.90;999.90;;;;;;;;;;6182431;23;20185;-73
2023/04/02 08:04:02;;;;;;;1999.90;999.90;;;;;;;;;;6183982;23;20217;-73
2023/04/02 08:06:48;;;;;;;1999.90;999.90;;;;;;;;;;6184842;23;20517;-73
2023/04/02 08:09:33;;;;;;;1999.90;999.90;;;;;;;;;;6184981;23;20482;-72
2023/04/02 08:12:19;;;;;;;1999.90;999.90;;;;;;;;;;6184794;23;20562;-72
2023/04/02 08:15:05;;;;;;;1999.90;999.90;;;;;;;;;;6184781;23;20194;-73
2023/04/02 08:17:52;;;;;;;1999.90;999.90;;;;;;;;;;6184865;23;20209;-72
2023/04/02 08:20:38;;;;;;;1999.90;999.90;;;;;;;;;;6184654;23;20278;-72
2023/04/02 08:23:23;;;;;;;1999.90;999.90;;;;;;;;;;6184804;23;20291;-72
2023/04/02 08:26:08;;;;;;;1999.90;999.90;;;;;;;;;;6183690;23;21000;-73
2023/04/02 08:28:55;;;;;;;1999.90;999.90;;;;;;;;;;6184944;23;20166;-72
2023/04/02 08:31:40;;;;;;;1999.90;999.90;;;;;;;;;;6184725;23;20170;-72
2023/04/02 08:34:25;;;;;;;1999.90;999.90;;;;;;;;;;6183833;23;20685;-73
2023/04/02 08:37:11;;;;;;;1999.90;999.90;;;;;;;;;;6183600;23;20234;-72
2023/04/02 08:39:56;;;;;;;1999.90;999.90;;;;;;;;;;6183231;23;20362;-72
2023/04/02 08:42:43;;;;;;;1999.90;999.90;;;;;;;;;;6182668;23;20257;-73
2023/04/02 08:45:35;;;;;;;1999.90;999.90;;;;;;;;;;6182782;23;20209;-72
2023/04/02 08:48:20;;;;;;;1999.90;999.90;;;;;;;;;;6183754;23;20554;-72
2023/04/02 08:51:06;;;;;;;1999.90;999.90;;;;;;;;;;6183328;23;20166;-72
2023/04/02 08:53:53;;;;;;;1999.90;999.90;;;;;;;;;;6183365;23;20201;-71
2023/04/02 08:56:40;;;;;;;1999.90;999.90;;;;;;;;;;6183992;23;20193;-72
2023/04/02 08:59:30;;;;;;;1999.90;999.90;;;;;;;;;;6184629;23;20221;-73
2023/04/02 09:02:26;;;;;;;1999.90;999.90;;;;;;;;;;6182827;23;20258;-73
2023/04/02 09:05:16;;;;;;;1999.90;999.90;;;;;;;;;;6183091;23;20530;-73
2023/04/02 09:08:02;;;;;;;1999.90;999.90;;;;;;;;;;6182988;23;20514;-72
2023/04/02 09:10:50;;;;;;;1999.90;999.90;;;;;;;;;;6183874;23;20217;-72
2023/04/02 09:13:40;;;;;;;1999.90;999.90;;;;;;;;;;6182766;23;20254;-73
2023/04/02 09:16:34;;;;;;;1999.90;999.90;;;;;;;;;;6183540;23;20542;-73
2023/04/02 09:19:22;;;;;;;1999.90;999.90;;;;;;;;;;6184289;23;20507;-72
2023/04/02 09:22:08;;;;;;;1999.90;999.90;;;;;;;;;;6184468;23;20254;-71
2023/04/02 09:24:54;;;;;;;1999.90;999.90;;;;;;;;;;6183270;23;20376;-72
2023/04/02 09:27:39;;;;;;;1999.90;999.90;;;;;;;;;;6184267;23;20226;-72
2023/04/02 09:30:29;;;;;;;1999.90;999.90;;;;;;;;;;6184527;23;20169;-72
2023/04/02 09:33:14;;;;;;;1999.90;999.90;;;;;;;;;;6184385;23;20202;-72
2023/04/02 09:36:01;;;;;;;1999.90;999.90;;;;;;;;;;6184426;23;20705;-72
2023/04/02 09:38:59;;;;;;;1999.90;999.90;;;;;;;;;;6183655;23;20167;-73
2023/04/02 09:41:44;;;;;;;1999.90;999.90;;;;;;;;;;6183831;23;20598;-70
2023/04/02 09:44:30;;;;;;;1999.90;999.90;;;;;;;;;;6183619;23;20214;-72
2023/04/02 09:47:23;;;;;;;1999.90;999.90;;;;;;;;;;6182575;23;20201;-72
2023/04/02 09:50:23;;;;;;;1999.90;999.90;;;;;;;;;;6183219;23;20624;-73
2023/04/02 09:53:26;;;;;;;1999.90;999.90;;;;;;;;;;6183399;23;20285;-72
2023/04/02 09:56:12;;;;;;;1999.90;999.90;;;;;;;;;;6183473;23;20190;-73
2023/04/02 09:59:04;;;;;;;1999.90;999.90;;;;;;;;;;6181923;23;20457;-73
2023/04/02 10:01:57;;;;;;;1999.90;999.90;;;;;;;;;;6182444;23;20170;-73
2023/04/02 10:04:43;;;;;;;1999.90;999.90;;;;;;;;;;6182506;23;20211;-72
2023/04/02 10:07:34;;;;;;;1999.90;999.90;;;;;;;;;;6182965;23;20190;-73
2023/04/02 10:10:22;;;;;;;1999.90;999.90;;;;;;;;;;6182760;23;20291;-72
2023/04/02 10:13:09;;;;;;;1999.90;999.90;;;;;;;;;;6182065;23;20387;-71
2023/04/02 10:15:57;;;;;;;1999.90;999.90;;;;;;;;;;6182637;23;20259;-71
2023/04/02 10:18:46;;;;;;;1999.90;999.90;;;;;;;;;;6183075;23;20506;-73
2023/04/02 10:21:33;;;;;;;1999.90;999.90;;;;;;;;;;6182453;23;20172;-72
2023/04/02 10:24:18;;;;;;;1999.90;999.90;;;;;;;;;;6182658;23;20211;-72
2023/04/02 10:27:16;;;;;;;1999.90;999.90;;;;;;;;;;6182649;23;20241;-72
2023/04/02 10:30:11;;;;;;;1999.90;999.90;;;;;;;;;;6182832;23;20223;-73
2023/04/02 10:32:59;;;;;;;1999.90;999.90;;;;;;;;;;6182640;23;20201;-73
2023/04/02 10:35:49;;;;;;;1999.90;999.90;;;;;;;;;;6183122;23;20194;-72
2023/04/02 10:38:37;;;;;;;1999.90;999.90;;;;;;;;;;6183062;23;20166;-73
2023/04/02 10:41:28;;;;;;;1999.90;999.90;;;;;;;;;;6182588;23;20191;-72
2023/04/02 10:44:22;;;;;;;1999.90;999.90;;;;;;;;;;6183200;23;20277;-73
2023/04/02 10:47:12;;;;;;;1999.90;999.90;;;;;;;;;;6182978;23;20179;-73
2023/04/02 10:50:04;;;;;;;1999.90;999.90;;;;;;;;;;6181027;23;20282;-72
2023/04/02 10:52:51;;;;;;;1999.90;999.90;;;;;;;;;;6181325;23;20226;-71
2023/04/02 10:55:42;;;;;;;1999.90;999.90;;;;;;;;;;6182235;23;20166;-71
2023/04/02 10:58:27;;;;;;;1999.90;999.90;;;;;;;;;;6182942;23;20209;-72
2023/04/02 11:01:19;;;;;;;1999.90;999.90;;;;;;;;;;6181947;23;20561;-72
2023/04/02 11:04:06;;;;;;;1999.90;999.90;;;;;;;;;;6181372;23;20374;-72
2023/04/02 11:06:53;;;;;;;1999.90;999.90;;;;;;;;;;6182113;23;20169;-71
2023/04/02 11:09:41;;;;;;;1999.90;999.90;;;;;;;;;;6182991;23;20259;-72
2023/04/02 11:12:31;;;;;;;1999.90;999.90;;;;;;;;;;6182527;23;20171;-70
2023/04/02 11:15:17;;;;;;;1999.90;999.90;;;;;;;;;;6183230;23;20188;-73
2023/04/02 11:18:04;;;;;;;1999.90;999.90;;;;;;;;;;6183002;23;20214;-72
2023/04/02 11:20:59;;;;;;;1999.90;999.90;;;;;;;;;;6182189;23;20169;-72
2023/04/02 11:23:56;;;;;;;1999.90;999.90;;;;;;;;;;6181935;23;20287;-72
2023/04/02 11:26:42;;;;;;;1999.90;999.90;;;;;;;;;;6182963;23;20164;-71
2023/04/02 11:29:28;;;;;;;1999.90;999.90;;;;;;;;;;6181944;23;20424;-72
2023/04/02 11:32:28;;;;;;;1999.90;999.90;;;;;;;;;;6182695;23;20679;-73
2023/04/02 11:35:26;;;;;;;1999.90;999.90;;;;;;;;;;6182280;23;20168;-73
2023/04/02 11:38:30;;;;;;;1999.90;999.90;;;;;;;;;;6182971;23;20225;-72
2023/04/02 11:41:38;;;;;;;1999.90;999.90;;;;;;;;;;6183626;23;20180;-71
2023/04/02 11:44:24;;;;;;;1999.90;999.90;;;;;;;;;;6182759;23;20384;-70
2023/04/02 11:47:16;;;;;;;1999.90;999.90;;;;;;;;;;6185427;23;20166;-72
2023/04/02 11:50:03;;;;;;;1999.90;999.90;;;;;;;;;;6185455;23;20171;-72
2023/04/02 11:52:53;;;;;;;1999.90;999.90;;;;;;;;;;6184415;23;20208;-73
2023/04/02 11:55:39;;;;;;;1999.90;999.90;;;;;;;;;;6184036;23;20523;-72
2023/04/02 11:58:36;;;;;;;1999.90;999.90;;;;;;;;;;6184425;23;20168;-72
2023/04/02 12:01:29;;;;;;;1999.90;999.90;;;;;;;;;;6184017;23;20204;-73
2023/04/02 12:04:29;;;;;;;1999.90;999.90;;;;;;;;;;6182793;23;20274;-73
2023/04/02 12:07:25;;;;;;;1999.90;999.90;;;;;;;;;;6184581;23;20513;-72
2023/04/02 12:10:16;;;;;;;1999.90;999.90;;;;;;;;;;6183746;23;20169;-72
2023/04/02 12:13:01;;;;;;;1999.90;999.90;;;;;;;;;;6183722;23;20204;-70
2023/04/02 12:15:47;;;;;;;1999.90;999.90;;;;;;;;;;6183494;23;20376;-72
2023/04/02 12:18:33;;;;;;;1999.90;999.90;;;;;;;;;;6184211;23;20166;-73
2023/04/02 12:21:19;;;;;;;1999.90;999.90;;;;;;;;;;6184496;23;20252;-73
2023/04/02 12:24:05;;;;;;;1999.90;999.90;;;;;;;;;;6184592;23;20207;-73
2023/04/02 12:27:07;;;;;;;1999.90;999.90;;;;;;;;;;6184634;23;20215;-73
2023/04/02 12:29:52;;;;;;;1999.90;999.90;;;;;;;;;;6182451;23;20873;-72
2023/04/02 12:32:37;;;;;;;1999.90;999.90;;;;;;;;;;6183435;23;20169;-72
2023/04/02 12:35:27;;;;;;;1999.90;999.90;;;;;;;;;;6183955;23;20694;-74
2023/04/02 12:38:19;;;;;;;1999.90;999.90;;;;;;;;;;6183597;23;20194;-72
2023/04/02 12:41:06;;;;;;;1999.90;999.90;;;;;;;;;;6183642;23;20646;-73
2023/04/02 12:44:02;;;;;;;1999.90;999.90;;;;;;;;;;6184219;23;20216;-73
2023/04/02 12:46:48;;;;;;;1999.90;999.90;;;;;;;;;;6184128;23;20293;-72
2023/04/02 12:49:35;;;;;;;1999.90;999.90;;;;;;;;;;6183612;23;20172;-73
2023/04/02 12:52:22;;;;;;;1999.90;999.90;;;;;;;;;;6183405;23;20214;-72
2023/04/02 12:55:16;;;;;;;1999.90;999.90;;;;;;;;;;6184051;23;20233;-72
2023/04/02 12:58:01;;;;;;;1999.90;999.90;;;;;;;;;;6183755;23;20190;-72
2023/04/02 13:00:48;;;;;;;1999.90;999.90;;;;;;;;;;6183584;23;20177;-72
2023/04/02 13:03:33;;;;;;;1999.90;999.90;;;;;;;;;;6183374;23;20278;-71
2023/04/02 13:06:21;;;;;;;1999.90;999.90;;;;;;;;;;6184074;23;20637;-73
2023/04/02 13:09:07;;;;;;;1999.90;999.90;;;;;;;;;;6183896;23;20173;-72
2023/04/02 13:11:52;;;;;;;1999.90;999.90;;;;;;;;;;6182538;23;20468;-73
2023/04/02 13:14:37;;;;;;;1999.90;999.90;;;;;;;;;;6182621;23;20257;-71
2023/04/02 13:17:40;;;;;;;1999.90;999.90;;;;;;;;;;6184210;23;20245;-72
2023/04/02 13:20:29;;;;;;;1999.90;999.90;;;;;;;;;;6184563;23;20169;-72
2023/04/02 13:23:24;;;;;;;1999.90;999.90;;;;;;;;;;6183951;23;20420;-71
2023/04/02 13:26:11;;;;;;;1999.90;999.90;;;;;;;;;;6183149;23;20173;-71
2023/04/02 13:28:57;;;;;;;1999.90;999.90;;;;;;;;;;6182595;23;20185;-73
2023/04/02 13:31:42;;;;;;;1999.90;999.90;;;;;;;;;;6182570;23;20184;-72
2023/04/02 13:34:28;;;;;;;1999.90;999.90;;;;;;;;;;6183112;23;20206;-72
2023/04/02 13:37:13;;;;;;;1999.90;999.90;;;;;;;;;;6182699;23;20363;-71
2023/04/02 13:39:58;;;;;;;1999.90;999.90;;;;;;;;;;6183143;23;20166;-71
2023/04/02 13:42:43;;;;;;;1999.90;999.90;;;;;;;;;;6183239;23;20217;-72
2023/04/02 13:45:29;;;;;;;1999.90;999.90;;;;;;;;;;6182932;23;20272;-72
2023/04/02 13:48:16;;;;;;;1999.90;999.90;;;;;;;;;;6183193;23;20646;-72
2023/04/02 13:51:03;;;;;;;1999.90;999.90;;;;;;;;;;6183182;23;20555;-72
2023/04/02 13:53:50;;;;;;;1999.90;999.90;;;;;;;;;;6183525;23;20358;-70
2023/04/02 13:56:35;;;;;;;1999.90;999.90;;;;;;;;;;6182717;23;20710;-71
2023/04/02 13:59:19;;;;;;;1999.90;999.90;;;;;;;;;;6182945;23;20181;-73
2023/04/02 14:02:06;;;;;;;1999.90;999.90;;;;;;;;;;6182681;23;20185;-71
2023/04/02 14:04:53;;;;;;;1999.90;999.90;;;;;;;;;;6183855;23;20166;-71
2023/04/02 14:07:44;;;;;;;1999.90;999.90;;;;;;;;;;6183230;23;20216;-71
2023/04/02 14:10:35;;;;;;;1999.90;999.90;;;;;;;;;;6183249;23;20274;-71
2023/04/02 14:13:27;;;;;;;1999.90;999.90;;;;;;;;;;6183071;23;20205;-74
2023/04/02 14:16:25;;;;;;;1999.90;999.90;;;;;;;;;;6183501;23;20174;-75
2023/04/02 14:19:16;;;;;;;1999.90;999.90;;;;;;;;;;6183358;23;20166;-71
2023/04/02 14:22:07;;;;;;;1999.90;999.90;;;;;;;;;;6183038;23;20173;-70
2023/04/02 14:24:58;;;;;;;1999.90;999.90;;;;;;;;;;6182723;23;20173;-72
2023/04/02 14:27:47;;;;;;;1999.90;999.90;;;;;;;;;;6183343;23;20845;-71
2023/04/02 14:30:36;;;;;;;1999.90;999.90;;;;;;;;;;6183412;23;20167;-70
2023/04/02 14:33:27;;;;;;;1999.90;999.90;;;;;;;;;;6182114;23;20204;-71
2023/04/02 14:36:14;;;;;;;1999.90;999.90;;;;;;;;;;6181656;23;20623;-70
2023/04/02 14:39:03;;;;;;;1999.90;999.90;;;;;;;;;;6182617;23;20181;-73
2023/04/02 14:41:52;;;;;;;1999.90;999.90;;;;;;;;;;6182262;23;20424;-73
2023/04/02 14:44:41;;;;;;;1999.90;999.90;;;;;;;;;;6183417;23;20587;-71
2023/04/02 14:47:30;;;;;;;1999.90;999.90;;;;;;;;;;6182728;23;20166;-71
2023/04/02 14:50:17;;;;;;;1999.90;999.90;;;;;;;;;;6183205;23;20213;-70
2023/04/02 14:53:06;;;;;;;1999.90;999.90;;;;;;;;;;6183005;23;20541;-72
2023/04/02 14:55:52;;;;;;;1999.90;999.90;;;;;;;;;;6183503;23;20185;-71
2023/04/02 14:58:41;;;;;;;1999.90;999.90;;;;;;;;;;6183059;23;20559;-74
2023/04/02 15:01:30;;;;;;;1999.90;999.90;;;;;;;;;;6183111;23;20252;-73
2023/04/02 15:04:18;;;;;;;1999.90;999.90;;;;;;;;;;6182635;23;20204;-73
2023/04/02 15:07:05;;;;;;;1999.90;999.90;;;;;;;;;;6183234;23;20621;-73
2023/04/02 15:09:53;;;;;;;1999.90;999.90;;;;;;;;;;6181482;23;20169;-70
2023/04/02 15:12:38;;;;;;;1999.90;999.90;;;;;;;;;;6182641;23;20529;-72
2023/04/02 15:15:32;;;;;;;1999.90;999.90;;;;;;;;;;6184502;23;20166;-74
2023/04/02 15:18:17;;;;;;;1999.90;999.90;;;;;;;;;;6183479;23;20194;-73
2023/04/02 15:21:07;;;;;;;1999.90;999.90;;;;;;;;;;6185428;23;20174;-71
2023/04/02 15:23:55;;;;;;;1999.90;999.90;;;;;;;;;;6183724;23;20282;-72
2023/04/02 15:26:45;;;;;;;1999.90;999.90;;;;;;;;;;6183101;23;20380;-71
2023/04/02 15:29:40;;;;;;;1999.90;999.90;;;;;;;;;;6184865;23;20620;-72
2023/04/02 15:32:29;;;;;;;1999.90;999.90;;;;;;;;;;6184752;23;20167;-74
2023/04/02 15:35:18;;;;;;;1999.90;999.90;;;;;;;;;;6184838;23;20615;-74
2023/04/02 15:38:07;;;;;;;1999.90;999.90;;;;;;;;;;6184534;23;20193;-73
2023/04/02 15:40:57;;;;;;;1999.90;999.90;;;;;;;;;;6188332;23;20693;-71